createdAt,value
2019-05-16T00:00:29.162Z,8.27
2019-05-16T00:02:58.923Z,8.70
2019-05-16T00:05:28.194Z,8.33
2019-05-16T00:07:58.971Z,9.00
2019-05-16T00:10:28.160Z,9.40
2019-05-16T00:12:59.617Z,8.77
2019-05-16T00:15:28.704Z,8.40
2019-05-16T00:17:58.295Z,8.70
2019-05-16T00:20:28.485Z,8.37
2019-05-16T00:22:58.855Z,8.03
2019-05-16T00:25:28.634Z,8.30
2019-05-16T00:27:58.609Z,7.63
2019-05-16T00:30:28.818Z,8.17
2019-05-16T00:32:58.755Z,8.27
2019-05-16T00:35:28.498Z,8.50
2019-05-16T00:37:59.027Z,7.87
2019-05-16T00:40:28.048Z,7.30
2019-05-16T00:42:58.916Z,7.40
2019-05-16T00:45:29.474Z,6.83
2019-05-16T00:47:59.925Z,6.67
2019-05-16T00:50:29.030Z,6.87
2019-05-16T00:52:58.897Z,7.80
2019-05-16T00:55:28.983Z,6.93
2019-05-16T00:57:58.346Z,6.93
2019-05-16T01:00:49.933Z,7.60
2019-05-16T01:03:20.200Z,7.83
2019-05-16T01:05:49.152Z,7.27
2019-05-16T01:08:18.974Z,7.97
2019-05-16T01:10:48.434Z,7.83
2019-05-16T01:13:18.692Z,8.73
2019-05-16T01:15:48.597Z,8.37
2019-05-16T01:18:18.788Z,7.37
2019-05-16T01:20:48.102Z,8.27
2019-05-16T01:23:18.239Z,7.90
2019-05-16T01:25:48.338Z,7.67
2019-05-16T01:28:18.171Z,7.17
2019-05-16T01:30:48.898Z,7.07
2019-05-16T01:33:19.270Z,7.00
2019-05-16T01:35:48.536Z,7.47
2019-05-16T01:38:18.032Z,5.93
2019-05-16T01:40:49.024Z,6.77
2019-05-16T01:43:17.885Z,6.40
2019-05-16T01:45:48.689Z,6.43
2019-05-16T01:48:19.159Z,6.10
2019-05-16T01:50:48.126Z,6.77
2019-05-16T01:53:17.883Z,5.40
2019-05-16T01:55:48.811Z,5.10
2019-05-16T01:58:19.758Z,5.33
2019-05-16T02:00:58.237Z,5.30
2019-05-16T02:03:19.149Z,4.67
2019-05-16T02:05:48.167Z,5.37
2019-05-16T02:08:18.187Z,6.07
2019-05-16T02:10:47.960Z,4.23
2019-05-16T02:13:17.943Z,4.80
2019-05-16T02:15:48.842Z,4.43
2019-05-16T02:18:18.432Z,4.30
2019-05-16T02:20:47.935Z,4.83
2019-05-16T02:23:18.812Z,4.50
2019-05-16T02:25:49.048Z,4.80
2019-05-16T02:28:21.161Z,4.40
2019-05-16T02:30:51.505Z,4.03
2019-05-16T02:33:21.454Z,4.07
2019-05-16T02:35:54.688Z,4.30
2019-05-16T02:38:21.171Z,4.33
2019-05-16T02:40:51.251Z,4.27
2019-05-16T02:43:21.800Z,4.43
2019-05-16T02:45:51.918Z,4.23
2019-05-16T02:48:21.625Z,5.33
2019-05-16T02:50:51.438Z,4.60
2019-05-16T02:53:22.253Z,5.30
2019-05-16T02:55:51.986Z,4.93
2019-05-16T02:58:23.335Z,4.77
2019-05-16T03:00:51.909Z,4.23
2019-05-16T03:03:21.588Z,4.63
2019-05-16T03:05:51.002Z,4.93
2019-05-16T03:08:21.282Z,4.87
2019-05-16T03:10:51.991Z,5.33
2019-05-16T03:13:22.521Z,5.60
2019-05-16T03:15:52.294Z,5.20
2019-05-16T03:18:23.682Z,5.77
2019-05-16T03:20:55.338Z,5.57
2019-05-16T03:23:24.025Z,5.60
2019-05-16T03:25:52.687Z,5.57
2019-05-16T03:28:22.186Z,5.70
2019-05-16T03:30:54.334Z,5.47
2019-05-16T03:33:30.764Z,5.77
2019-05-16T03:35:54.720Z,5.53
2019-05-16T03:38:22.418Z,5.13
2019-05-16T03:40:51.322Z,5.03
2019-05-16T03:43:21.920Z,5.33
2019-05-16T03:45:52.266Z,5.27
2019-05-16T03:48:21.464Z,5.27
2019-05-16T03:50:50.892Z,5.27
2019-05-16T03:53:21.080Z,5.50
2019-05-16T03:55:51.741Z,5.80
2019-05-16T03:58:22.529Z,4.43
2019-05-16T04:00:54.356Z,5.10
2019-05-16T04:03:23.357Z,5.33
2019-05-16T04:05:52.994Z,5.10
2019-05-16T04:08:24.855Z,4.53
2019-05-16T04:10:52.763Z,5.00
2019-05-16T04:13:22.103Z,4.93
2019-05-16T04:15:52.438Z,5.00
2019-05-16T04:18:22.257Z,5.40
2019-05-16T04:20:52.273Z,5.00
2019-05-16T04:23:21.568Z,5.27
2019-05-16T04:25:52.507Z,5.43
2019-05-16T04:28:22.058Z,5.43
2019-05-16T04:30:52.136Z,5.97
2019-05-16T04:33:22.398Z,5.83
2019-05-16T04:35:52.969Z,5.20
2019-05-16T04:38:34.371Z,5.33
2019-05-16T04:40:52.653Z,6.00
2019-05-16T04:43:22.470Z,6.13
2019-05-16T04:45:52.466Z,5.70
2019-05-16T04:48:22.560Z,6.37
2019-05-16T04:50:52.133Z,5.30
2019-05-16T04:53:21.824Z,5.03
2019-05-16T04:55:51.961Z,5.40
2019-05-16T04:58:23.253Z,5.77
2019-05-16T05:00:52.311Z,5.70
2019-05-16T05:03:22.254Z,6.67
2019-05-16T05:05:51.830Z,9.73
2019-05-16T05:08:22.413Z,11.77
2019-05-16T05:10:51.973Z,18.73
2019-05-16T05:13:22.127Z,6.30
2019-05-16T05:15:51.353Z,5.47
2019-05-16T05:18:21.236Z,6.50
2019-05-16T05:20:52.200Z,6.20
2019-05-16T05:23:21.237Z,7.20
2019-05-16T05:25:51.388Z,6.13
2019-05-16T05:28:21.272Z,5.50
2019-05-16T05:30:50.720Z,5.43
2019-05-16T05:33:21.008Z,6.13
2019-05-16T05:35:50.974Z,7.67
2019-05-16T05:38:21.281Z,6.47
2019-05-16T05:40:51.272Z,6.77
2019-05-16T05:43:21.612Z,5.43
2019-05-16T05:45:51.415Z,6.47
2019-05-16T05:48:21.849Z,5.57
2019-05-16T05:50:51.285Z,5.87
2019-05-16T05:53:21.021Z,6.63
2019-05-16T05:55:51.679Z,5.13
2019-05-16T05:58:21.509Z,6.33
2019-05-16T06:00:51.702Z,6.67
2019-05-16T06:03:22.760Z,4.40
2019-05-16T06:05:51.571Z,4.50
2019-05-16T06:08:21.092Z,3.90
2019-05-16T06:10:50.628Z,4.10
2019-05-16T06:13:20.642Z,3.70
2019-05-16T06:15:51.048Z,3.77
2019-05-16T06:18:20.272Z,3.47
2019-05-16T06:20:51.230Z,3.40
2019-05-16T06:23:20.726Z,4.97
2019-05-16T06:25:50.898Z,4.60
2019-05-16T06:28:21.016Z,4.30
2019-05-16T06:30:51.711Z,8.77
2019-05-16T06:33:20.532Z,3.63
2019-05-16T06:35:51.295Z,4.63
2019-05-16T06:38:21.155Z,4.67
2019-05-16T06:40:52.694Z,6.03
2019-05-16T06:43:20.777Z,5.30
2019-05-16T06:45:51.272Z,5.17
2019-05-16T06:48:21.193Z,5.60
2019-05-16T06:50:51.601Z,4.90
2019-05-16T06:53:21.307Z,4.37
2019-05-16T06:55:50.241Z,4.97
2019-05-16T06:58:21.775Z,4.40
2019-05-16T07:00:52.104Z,4.40
2019-05-16T07:03:20.619Z,5.23
2019-05-16T07:05:50.553Z,4.77
2019-05-16T07:08:20.804Z,5.10
2019-05-16T07:10:50.924Z,4.80
2019-05-16T07:13:20.225Z,5.27
2019-05-16T07:15:50.198Z,5.10
2019-05-16T07:18:21.056Z,5.30
2019-05-16T07:20:51.012Z,5.00
2019-05-16T07:23:21.069Z,7.07
2019-05-16T07:25:50.730Z,6.57
2019-05-16T07:28:20.938Z,5.93
2019-05-16T07:31:00.608Z,4.67
2019-05-16T07:33:31.082Z,4.33
2019-05-16T07:36:00.387Z,5.37
2019-05-16T07:38:30.914Z,5.30
2019-05-16T07:40:59.937Z,5.53
2019-05-16T07:43:30.823Z,4.87
2019-05-16T07:46:00.435Z,5.73
2019-05-16T07:48:31.558Z,7.73
2019-05-16T07:51:00.547Z,6.53
2019-05-16T07:53:32.737Z,5.30
2019-05-16T07:56:00.161Z,4.70
2019-05-16T07:58:31.260Z,7.43
2019-05-16T08:01:04.539Z,5.10
2019-05-16T08:03:30.380Z,7.30
2019-05-16T08:06:01.716Z,6.17
2019-05-16T08:08:31.415Z,5.77
2019-05-16T08:11:01.649Z,5.87
2019-05-16T08:13:31.038Z,5.73
2019-05-16T08:16:06.603Z,7.43
2019-05-16T08:18:35.323Z,7.00
2019-05-16T08:21:04.225Z,11.87
2019-05-16T08:23:35.041Z,7.87
2019-05-16T08:26:03.748Z,6.23
2019-05-16T08:28:32.428Z,6.13
2019-05-16T08:31:01.277Z,6.37
2019-05-16T08:33:32.096Z,8.10
2019-05-16T08:36:07.145Z,6.47
2019-05-16T08:38:31.190Z,12.73
2019-05-16T08:41:11.523Z,6.70
2019-05-16T08:43:31.608Z,6.63
2019-05-16T08:46:01.145Z,7.23
2019-05-16T08:48:31.898Z,6.10
2019-05-16T08:51:02.818Z,6.33
2019-05-16T08:53:32.116Z,5.13
2019-05-16T08:56:02.591Z,5.97
2019-05-16T09:01:02.854Z,5.47
2019-05-16T09:03:32.595Z,6.63
2019-05-16T09:06:02.863Z,6.50
2019-05-16T09:08:32.363Z,6.50
2019-05-16T09:10:15.890Z,6.07
2019-05-16T09:11:09.429Z,6.10
2019-05-16T09:13:32.044Z,6.87
2019-05-16T09:16:00.801Z,6.07
2019-05-16T09:18:29.489Z,7.90
2019-05-16T09:20:58.287Z,7.08
2019-05-16T09:23:26.950Z,6.75
2019-05-16T09:25:58.507Z,6.70
2019-05-16T09:28:30.778Z,7.28
2019-05-16T09:30:57.883Z,7.10
2019-05-16T09:33:27.295Z,6.92
2019-05-16T09:35:57.792Z,7.37
2019-05-16T09:38:28.426Z,7.03
2019-05-16T09:40:57.323Z,8.37
2019-05-16T09:43:28.058Z,7.37
2019-05-16T09:46:03.401Z,8.00
2019-05-16T09:48:28.142Z,7.47
2019-05-16T09:50:57.921Z,7.65
2019-05-16T09:53:27.558Z,5.90
2019-05-16T09:55:57.595Z,7.37
2019-05-16T09:58:27.796Z,6.65
2019-05-16T10:00:57.756Z,7.10
2019-05-16T10:03:27.072Z,6.92
2019-05-16T10:05:57.157Z,7.83
2019-05-16T10:08:27.170Z,7.33
2019-05-16T10:10:57.105Z,7.72
2019-05-16T10:13:27.724Z,8.73
2019-05-16T10:15:56.638Z,7.97
2019-05-16T10:18:27.651Z,8.73
2019-05-16T10:20:58.965Z,11.43
2019-05-16T10:23:28.238Z,8.05
2019-05-16T10:25:56.985Z,8.83
2019-05-16T10:28:27.578Z,9.20
2019-05-16T10:30:56.951Z,8.08
2019-05-16T10:33:27.451Z,9.10
2019-05-16T10:35:57.989Z,8.13
2019-05-16T10:38:28.366Z,9.00
2019-05-16T10:40:57.263Z,8.60
2019-05-16T10:43:26.450Z,9.08
2019-05-16T10:45:55.677Z,9.90
2019-05-16T10:48:26.776Z,9.50
2019-05-16T10:50:57.369Z,8.60
2019-05-16T10:53:53.702Z,12.53
2019-05-16T10:55:57.152Z,21.43
2019-05-16T10:58:36.552Z,13.97
2019-05-16T11:01:24.385Z,8.93
2019-05-16T11:03:27.574Z,9.10
2019-05-16T11:06:05.345Z,9.77
2019-05-16T11:08:27.029Z,9.50
2019-05-16T11:10:57.102Z,8.83
2019-05-16T11:13:27.983Z,8.83
2019-05-16T11:15:56.379Z,8.53
2019-05-16T11:18:27.247Z,9.37
2019-05-16T11:20:57.981Z,8.13
2019-05-16T11:23:30.860Z,8.27
2019-05-16T11:25:58.476Z,8.27
2019-05-16T11:28:27.494Z,9.40
2019-05-16T11:31:02.939Z,8.50
2019-05-16T11:33:28.549Z,8.63
2019-05-16T11:35:58.675Z,7.73
2019-05-16T11:38:29.750Z,7.60
2019-05-16T11:40:58.460Z,8.80
2019-05-16T11:43:27.915Z,8.67
2019-05-16T11:45:57.401Z,6.73
2019-05-16T11:48:29.110Z,7.57
2019-05-16T11:50:56.973Z,8.60
2019-05-16T11:53:28.346Z,7.43
2019-05-16T11:56:01.177Z,5.70
2019-05-16T11:58:26.749Z,6.37
2019-05-16T12:00:57.530Z,7.83
2019-05-16T12:03:28.179Z,6.87
2019-05-16T12:05:58.010Z,6.67
2019-05-16T12:08:27.302Z,6.20
2019-05-16T12:10:55.973Z,4.40
2019-05-16T12:13:29.796Z,5.07
2019-05-16T12:15:56.554Z,4.27
2019-05-16T12:18:26.561Z,2.80
2019-05-16T12:20:56.571Z,3.10
2019-05-16T12:23:27.636Z,3.80
2019-05-16T12:25:56.581Z,3.27
2019-05-16T12:28:27.286Z,4.15
2019-05-16T12:30:56.376Z,2.65
2019-05-16T12:33:27.515Z,2.37
2019-05-16T12:35:57.561Z,4.95
2019-05-16T12:38:27.631Z,3.80
2019-05-16T12:40:56.635Z,2.75
2019-05-16T12:43:43.735Z,2.30
2019-05-16T12:45:56.995Z,2.37
2019-05-16T12:48:25.756Z,2.30
2019-05-16T12:50:54.461Z,2.80
2019-05-16T12:53:23.405Z,2.50
2019-05-16T12:55:53.663Z,2.60
2019-05-16T12:58:25.961Z,2.17
2019-05-16T13:00:54.932Z,1.90
2019-05-16T13:03:23.257Z,3.00
2019-05-16T13:05:52.011Z,4.97
2019-05-16T13:08:20.733Z,3.42
2019-05-16T13:10:49.672Z,2.92
2019-05-16T13:13:18.373Z,2.83
2019-05-16T13:15:47.686Z,2.72
2019-05-16T13:18:17.049Z,3.15
2019-05-16T13:20:46.785Z,2.80
2019-05-16T13:23:18.329Z,3.00
2019-05-16T13:25:48.149Z,3.83
2019-05-16T13:28:16.778Z,3.17
2019-05-16T13:30:47.189Z,2.70
2019-05-16T13:33:17.843Z,4.40
2019-05-16T13:35:47.155Z,6.10
2019-05-16T13:38:17.277Z,5.67
2019-05-16T13:40:46.263Z,5.47
2019-05-16T13:43:17.248Z,5.10
2019-05-16T13:45:47.112Z,4.60
2019-05-16T13:48:17.277Z,4.40
2019-05-16T13:50:47.388Z,4.47
2019-05-16T13:53:16.544Z,4.50
2019-05-16T13:55:45.374Z,4.80
2019-05-16T13:58:14.086Z,5.03
2019-05-16T14:00:42.891Z,3.50
2019-05-16T14:03:11.512Z,3.50
2019-05-16T14:05:40.218Z,4.10
2019-05-16T14:08:08.887Z,4.57
2019-05-16T14:10:37.846Z,4.77
2019-05-16T14:13:07.523Z,4.60
2019-05-16T14:15:39.168Z,4.67
2019-05-16T14:18:08.047Z,4.60
2019-05-16T14:20:37.789Z,5.53
2019-05-16T14:23:08.539Z,4.67
2019-05-16T14:25:38.318Z,4.50
2019-05-16T14:28:07.833Z,4.47
2019-05-16T14:30:37.624Z,4.20
2019-05-16T14:33:13.478Z,5.97
2019-05-16T14:35:37.756Z,5.30
2019-05-16T14:38:06.946Z,5.83
2019-05-16T14:40:37.367Z,5.60
2019-05-16T14:43:08.244Z,6.83
2019-05-16T14:45:37.312Z,5.97
2019-05-16T14:48:07.488Z,5.97
2019-05-16T14:50:37.657Z,6.07
2019-05-16T14:53:07.338Z,6.27
2019-05-16T14:55:38.146Z,5.43
2019-05-16T14:58:07.662Z,6.23
2019-05-16T15:00:38.462Z,6.10
2019-05-16T15:03:08.207Z,6.03
2019-05-16T15:05:42.526Z,5.93
2019-05-16T15:08:08.830Z,6.77
2019-05-16T15:10:37.875Z,7.23
2019-05-16T15:13:07.860Z,6.67
2019-05-16T15:15:37.605Z,5.87
2019-05-16T15:18:08.367Z,6.13
2019-05-16T15:20:37.128Z,6.83
2019-05-16T15:23:07.700Z,6.27
2019-05-16T15:25:37.548Z,6.53
2019-05-16T15:28:07.593Z,5.77
2019-05-16T15:30:38.978Z,6.43
2019-05-16T15:33:08.485Z,6.43
2019-05-16T15:35:38.203Z,6.53
2019-05-16T15:38:10.131Z,7.20
2019-05-16T15:40:38.783Z,5.50
2019-05-16T15:43:08.144Z,6.47
2019-05-16T15:45:44.225Z,6.53
2019-05-16T15:48:12.749Z,6.50
2019-05-16T15:50:41.644Z,6.40
2019-05-16T15:53:10.649Z,6.60
2019-05-16T15:55:39.314Z,6.00
2019-05-16T15:58:10.477Z,6.90
2019-05-16T16:00:47.467Z,6.03
2019-05-16T16:03:14.438Z,6.83
2019-05-16T16:05:43.115Z,7.17
2019-05-16T16:08:11.885Z,6.20
2019-05-16T16:10:42.340Z,6.53
2019-05-16T16:13:11.148Z,6.10
2019-05-16T16:15:50.349Z,7.03
2019-05-16T16:18:11.156Z,7.50
2019-05-16T16:20:39.824Z,7.13
2019-05-16T16:23:08.501Z,6.67
2019-05-16T16:25:37.205Z,6.07
2019-05-16T16:28:07.349Z,6.50
2019-05-16T16:30:37.317Z,6.50
2019-05-16T16:33:21.368Z,6.27
2019-05-16T16:35:38.025Z,6.77
2019-05-16T16:38:07.243Z,6.60
2019-05-16T16:40:37.482Z,6.60
2019-05-16T16:43:07.963Z,7.23
2019-05-16T16:45:36.759Z,7.10
2019-05-16T16:48:07.922Z,7.33
2019-05-16T16:50:37.083Z,6.90
2019-05-16T16:53:07.116Z,7.83
2019-05-16T16:55:36.996Z,8.10
2019-05-16T16:58:09.160Z,11.10
2019-05-16T17:00:37.810Z,7.00
2019-05-16T17:03:10.432Z,7.83
2019-05-16T17:05:37.419Z,7.53
2019-05-16T17:08:07.546Z,7.83
2019-05-16T17:10:38.074Z,7.67
2019-05-16T17:13:07.185Z,7.70
2019-05-16T17:15:36.806Z,7.50
2019-05-16T17:18:06.974Z,7.67
2019-05-16T17:20:37.234Z,7.80
2019-05-16T17:23:06.870Z,7.37
2019-05-16T17:25:36.703Z,6.47
2019-05-16T17:28:06.955Z,5.80
2019-05-16T17:30:36.774Z,6.60
2019-05-16T17:33:07.545Z,6.20
2019-05-16T17:35:38.835Z,5.53
2019-05-16T17:38:07.025Z,6.03
2019-05-16T17:40:38.116Z,5.13
2019-05-16T17:43:07.531Z,6.10
2019-05-16T17:45:37.675Z,6.57
2019-05-16T17:48:06.931Z,6.30
2019-05-16T17:50:37.522Z,5.50
2019-05-16T17:53:07.064Z,6.87
2019-05-16T17:55:37.073Z,6.03
2019-05-16T17:58:08.757Z,6.03
2019-05-16T18:00:36.860Z,5.50
2019-05-16T18:03:06.603Z,5.63
2019-05-16T18:05:37.008Z,5.30
2019-05-16T18:08:07.491Z,5.20
2019-05-16T18:10:36.625Z,4.97
2019-05-16T18:13:07.847Z,5.63
2019-05-16T18:15:36.701Z,5.40
2019-05-16T18:18:07.144Z,5.33
2019-05-16T18:20:37.290Z,4.70
2019-05-16T18:23:07.101Z,4.90
2019-05-16T18:25:36.610Z,4.17
2019-05-16T18:28:07.822Z,4.67
2019-05-16T18:30:36.813Z,5.50
2019-05-16T18:33:07.380Z,4.60
2019-05-16T18:35:37.110Z,4.53
2019-05-16T18:38:07.417Z,5.00
2019-05-16T18:40:37.050Z,4.93
2019-05-16T18:43:08.347Z,4.73
2019-05-16T18:45:36.812Z,4.80
2019-05-16T18:48:07.533Z,5.17
2019-05-16T18:50:38.251Z,4.47
2019-05-16T18:53:07.537Z,4.80
2019-05-16T18:55:37.415Z,5.07
2019-05-16T18:58:08.652Z,4.90
2019-05-16T19:00:37.801Z,5.23
2019-05-16T19:03:08.005Z,4.57
2019-05-16T19:05:37.443Z,4.30
2019-05-16T19:08:07.340Z,4.30
2019-05-16T19:10:36.940Z,4.70
2019-05-16T19:13:08.183Z,4.27
2019-05-16T19:15:37.508Z,4.53
2019-05-16T19:18:06.717Z,4.90
2019-05-16T19:20:37.452Z,5.30
2019-05-16T19:23:07.365Z,4.83
2019-05-16T19:25:36.522Z,4.67
2019-05-16T19:28:06.984Z,5.20
2019-05-16T19:30:37.525Z,4.57
2019-05-16T19:33:06.973Z,4.57
2019-05-16T19:35:36.388Z,4.80
2019-05-16T19:38:06.798Z,4.83
2019-05-16T19:40:37.699Z,4.47
2019-05-16T19:43:07.310Z,4.70
2019-05-16T19:45:37.364Z,4.23
2019-05-16T19:48:07.368Z,4.30
2019-05-16T19:50:37.222Z,4.03
2019-05-16T19:53:07.777Z,4.90
2019-05-16T19:55:36.888Z,5.00
2019-05-16T19:58:06.798Z,4.90
2019-05-16T20:00:37.611Z,5.07
2019-05-16T20:03:07.766Z,5.33
2019-05-16T20:05:37.661Z,5.17
2019-05-16T20:08:07.005Z,5.33
2019-05-16T20:10:36.677Z,5.17
2019-05-16T20:13:07.893Z,5.93
2019-05-16T20:15:36.763Z,5.60
2019-05-16T20:18:07.851Z,5.77
2019-05-16T20:20:37.104Z,5.70
2019-05-16T20:23:07.319Z,5.77
2019-05-16T20:25:36.728Z,5.57
2019-05-16T20:28:08.726Z,6.37
2019-05-16T20:30:37.149Z,5.47
2019-05-16T20:33:08.922Z,5.43
2019-05-16T20:35:37.521Z,5.63
2019-05-16T20:38:06.928Z,5.93
2019-05-16T20:40:37.521Z,5.60
2019-05-16T20:43:07.767Z,6.13
2019-05-16T20:45:39.790Z,5.33
2019-05-16T20:48:14.711Z,5.40
2019-05-16T20:50:37.789Z,5.17
2019-05-16T20:53:07.214Z,5.33
2019-05-16T20:55:37.702Z,4.90
2019-05-16T20:58:07.665Z,5.20
2019-05-16T21:00:37.824Z,5.70
2019-05-16T21:03:07.292Z,5.57
2019-05-16T21:05:38.228Z,5.13
2019-05-16T21:08:06.772Z,5.67
2019-05-16T21:10:35.700Z,5.30
2019-05-16T21:13:06.688Z,5.80
2019-05-16T21:15:37.085Z,6.00
2019-05-16T21:18:07.341Z,5.47
2019-05-16T21:20:35.631Z,5.70
2019-05-16T21:23:04.299Z,5.90
2019-05-16T21:25:32.971Z,5.80
2019-05-16T21:28:01.666Z,6.73
2019-05-16T21:30:30.335Z,6.03
2019-05-16T21:32:58.997Z,6.80
2019-05-16T21:35:27.672Z,6.13
2019-05-16T21:37:56.335Z,5.47
2019-05-16T21:40:26.550Z,6.70
2019-05-16T21:42:58.375Z,6.40
2019-05-16T21:45:28.368Z,6.30
2019-05-16T21:47:56.838Z,6.20
2019-05-16T21:50:27.561Z,6.50
2019-05-16T21:52:56.520Z,6.33
2019-05-16T21:55:29.720Z,5.87
2019-05-16T21:57:57.499Z,6.73
2019-05-16T22:00:30.881Z,6.00
2019-05-16T22:02:59.546Z,5.80
2019-05-16T22:05:28.234Z,6.17
2019-05-16T22:07:56.928Z,5.77
2019-05-16T22:10:26.607Z,6.50
2019-05-16T22:12:57.166Z,5.90
2019-05-16T22:15:25.940Z,6.50
2019-05-16T22:17:56.507Z,5.63
2019-05-16T22:20:27.087Z,6.33
2019-05-16T22:22:57.435Z,6.23
2019-05-16T22:25:27.246Z,5.43
2019-05-16T22:27:57.629Z,7.03
2019-05-16T22:30:27.241Z,6.17
2019-05-16T22:32:56.272Z,5.57
2019-05-16T22:35:27.266Z,6.07
2019-05-16T22:37:59.091Z,6.17
2019-05-16T22:40:26.703Z,5.53
2019-05-16T22:42:57.614Z,6.97
2019-05-16T22:45:27.062Z,5.47
2019-05-16T22:47:55.976Z,5.57
2019-05-16T22:50:26.931Z,6.30
2019-05-16T22:52:56.979Z,5.50
2019-05-16T22:55:26.445Z,5.97
2019-05-16T22:57:56.461Z,5.60
2019-05-16T23:00:27.408Z,6.20
2019-05-16T23:02:56.664Z,5.73
2019-05-16T23:05:27.472Z,6.00
2019-05-16T23:08:05.103Z,6.10
2019-05-16T23:10:28.013Z,6.57
2019-05-16T23:12:57.322Z,6.47
2019-05-16T23:15:26.599Z,6.23
2019-05-16T23:17:57.320Z,6.67
2019-05-16T23:20:27.795Z,5.77
2019-05-16T23:22:56.710Z,6.00
2019-05-16T23:25:25.394Z,6.43
2019-05-16T23:27:54.076Z,6.13
2019-05-16T23:30:22.864Z,5.30
2019-05-16T23:32:51.579Z,5.47
2019-05-16T23:35:20.245Z,5.90
2019-05-16T23:37:48.915Z,5.70
2019-05-16T23:40:18.503Z,5.87
2019-05-16T23:42:47.161Z,5.70
2019-05-16T23:45:17.096Z,6.20
2019-05-16T23:47:47.080Z,6.03
2019-05-16T23:50:17.022Z,6.53
2019-05-16T23:52:47.094Z,6.30
2019-05-16T23:55:17.527Z,5.70
2019-05-16T23:57:46.876Z,6.77
